sensor_id;sensor_type;location;lat;lon;timestamp;pressure;altitude;pressure_sealevel;temperature;humidity
71573;BME280;59408;51.032;9.410;2023-03-14T00:00:22;96806.94;;;8.94;88.99
71573;BME280;59408;51.032;9.410;2023-03-14T00:02:51;96819.41;;;8.98;88.71
71573;BME280;59408;51.032;9.410;2023-03-14T00:05:19;96818.66;;;9.01;88.69
71573;BME280;59408;51.032;9.410;2023-03-14T00:07:45;96827.56;;;8.91;89.49
71573;BME280;59408;51.032;9.410;2023-03-14T00:10:14;96843.88;;;8.91;90.02
71573;BME280;59408;51.032;9.410;2023-03-14T00:12:42;96865.97;;;8.83;90.76
71573;BME280;59408;51.032;9.410;2023-03-14T00:15:09;96868.59;;;8.72;91.67
71573;BME280;59408;51.032;9.410;2023-03-14T00:17:37;96882.56;;;8.70;92.00
71573;BME280;59408;51.032;9.410;2023-03-14T00:20:06;96905.47;;;8.69;92.31
71573;BME280;59408;51.032;9.410;2023-03-14T00:22:33;96895.72;;;8.61;92.87
71573;BME280;59408;51.032;9.410;2023-03-14T00:25:00;96931.06;;;8.65;93.21
71573;BME280;59408;51.032;9.410;2023-03-14T00:27:27;96904.28;;;8.63;93.07
71573;BME280;59408;51.032;9.410;2023-03-14T00:29:55;96900.78;;;8.66;93.32
71573;BME280;59408;51.032;9.410;2023-03-14T00:32:22;96900.78;;;8.66;93.47
71573;BME280;59408;51.032;9.410;2023-03-14T00:34:49;96899.97;;;8.59;93.90
71573;BME280;59408;51.032;9.410;2023-03-14T00:37:16;96903.41;;;8.52;94.19
71573;BME280;59408;51.032;9.410;2023-03-14T00:39:42;96902.22;;;8.50;94.17
71573;BME280;59408;51.032;9.410;2023-03-14T00:42:09;96886.69;;;8.50;94.33
71573;BME280;59408;51.032;9.410;2023-03-14T00:44:36;96880.44;;;8.43;94.78
71573;BME280;59408;51.032;9.410;2023-03-14T00:47:04;96876.56;;;8.47;94.13
71573;BME280;59408;51.032;9.410;2023-03-14T00:49:31;96879.69;;;8.49;94.03
71573;BME280;59408;51.032;9.410;2023-03-14T00:51:57;96859.13;;;8.45;94.16
71573;BME280;59408;51.032;9.410;2023-03-14T00:54:24;96833.88;;;8.48;93.50
71573;BME280;59408;51.032;9.410;2023-03-14T00:56:51;96858.00;;;8.53;93.10
71573;BME280;59408;51.032;9.410;2023-03-14T00:59:17;96853.75;;;8.55;92.93
71573;BME280;59408;51.032;9.410;2023-03-14T01:01:44;96849.09;;;8.59;92.30
71573;BME280;59408;51.032;9.410;2023-03-14T01:04:12;96844.41;;;8.56;92.62
71573;BME280;59408;51.032;9.410;2023-03-14T01:06:39;96847.91;;;8.57;92.51
71573;BME280;59408;51.032;9.410;2023-03-14T01:09:06;96897.25;;;8.59;92.36
71573;BME280;59408;51.032;9.410;2023-03-14T01:11:34;96863.44;;;8.53;93.06
71573;BME280;59408;51.032;9.410;2023-03-14T01:14:01;96859.91;;;8.45;93.54
71573;BME280;59408;51.032;9.410;2023-03-14T01:16:30;96859.44;;;8.39;94.14
71573;BME280;59408;51.032;9.410;2023-03-14T01:18:57;96842.00;;;8.37;94.29
71573;BME280;59408;51.032;9.410;2023-03-14T01:21:26;96841.97;;;8.33;94.35
71573;BME280;59408;51.032;9.410;2023-03-14T01:23:55;96843.53;;;8.38;93.98
71573;BME280;59408;51.032;9.410;2023-03-14T01:26:24;96855.19;;;8.38;94.20
71573;BME280;59408;51.032;9.410;2023-03-14T01:28:53;96835.41;;;8.42;94.17
71573;BME280;59408;51.032;9.410;2023-03-14T01:31:20;96825.69;;;8.37;94.57
71573;BME280;59408;51.032;9.410;2023-03-14T01:33:47;96812.50;;;8.39;94.37
71573;BME280;59408;51.032;9.410;2023-03-14T01:36:13;96806.63;;;8.30;95.12
71573;BME280;59408;51.032;9.410;2023-03-14T01:38:41;96796.19;;;8.35;94.09
71573;BME280;59408;51.032;9.410;2023-03-14T01:41:12;96776.84;;;8.44;93.87
71573;BME280;59408;51.032;9.410;2023-03-14T01:43:40;96779.94;;;8.43;94.00
71573;BME280;59408;51.032;9.410;2023-03-14T01:46:26;96784.13;;;8.33;94.57
71573;BME280;59408;51.032;9.410;2023-03-14T01:49:05;96779.44;;;8.30;94.85
71573;BME280;59408;51.032;9.410;2023-03-14T01:51:38;96791.53;;;8.36;94.74
71573;BME280;59408;51.032;9.410;2023-03-14T01:54:13;96792.28;;;8.33;94.83
71573;BME280;59408;51.032;9.410;2023-03-14T01:56:43;96805.91;;;8.36;94.56
71573;BME280;59408;51.032;9.410;2023-03-14T01:59:11;96791.53;;;8.39;93.53
71573;BME280;59408;51.032;9.410;2023-03-14T02:01:41;96776.81;;;8.37;93.44
71573;BME280;59408;51.032;9.410;2023-03-14T02:04:09;96807.50;;;8.48;92.54
71573;BME280;59408;51.032;9.410;2023-03-14T02:06:44;96802.06;;;8.48;92.70
71573;BME280;59408;51.032;9.410;2023-03-14T02:09:15;96792.34;;;8.47;92.65
71573;BME280;59408;51.032;9.410;2023-03-14T02:11:42;96794.69;;;8.45;92.85
71573;BME280;59408;51.032;9.410;2023-03-14T02:14:17;96791.97;;;8.49;93.03
71573;BME280;59408;51.032;9.410;2023-03-14T02:16:45;96796.25;;;8.46;93.20
71573;BME280;59408;51.032;9.410;2023-03-14T02:19:14;96794.34;;;8.57;92.49
71573;BME280;59408;51.032;9.410;2023-03-14T02:21:49;96788.91;;;8.54;93.41
71573;BME280;59408;51.032;9.410;2023-03-14T02:24:25;96800.13;;;8.49;93.70
71573;BME280;59408;51.032;9.410;2023-03-14T02:27:04;96791.63;;;8.57;92.95
71573;BME280;59408;51.032;9.410;2023-03-14T02:29:33;96791.28;;;8.62;92.52
71573;BME280;59408;51.032;9.410;2023-03-14T02:32:03;96780.81;;;8.61;92.87
71573;BME280;59408;51.032;9.410;2023-03-14T02:34:31;96794.38;;;8.61;93.63
71573;BME280;59408;51.032;9.410;2023-03-14T02:36:58;96781.19;;;8.56;94.12
71573;BME280;59408;51.032;9.410;2023-03-14T02:39:30;96783.06;;;8.48;94.74
71573;BME280;59408;51.032;9.410;2023-03-14T02:41:59;96772.19;;;8.45;94.87
71573;BME280;59408;51.032;9.410;2023-03-14T02:44:27;96773.31;;;8.36;95.72
71573;BME280;59408;51.032;9.410;2023-03-14T02:46:54;96772.13;;;8.34;95.79
71573;BME280;59408;51.032;9.410;2023-03-14T02:49:21;96776.00;;;8.33;96.11
71573;BME280;59408;51.032;9.410;2023-03-14T02:51:48;96775.59;;;8.27;96.42
71573;BME280;59408;51.032;9.410;2023-03-14T02:54:15;96773.66;;;8.31;96.26
71573;BME280;59408;51.032;9.410;2023-03-14T02:56:42;96771.75;;;8.35;95.92
71573;BME280;59408;51.032;9.410;2023-03-14T02:59:08;96776.41;;;8.35;96.07
71573;BME280;59408;51.032;9.410;2023-03-14T03:01:36;96764.00;;;8.37;95.47
71573;BME280;59408;51.032;9.410;2023-03-14T03:04:04;96756.59;;;8.38;95.41
71573;BME280;59408;51.032;9.410;2023-03-14T03:06:31;96765.53;;;8.35;95.29
71573;BME280;59408;51.032;9.410;2023-03-14T03:08:57;96756.59;;;8.34;95.15
71573;BME280;59408;51.032;9.410;2023-03-14T03:11:24;96748.06;;;8.32;95.38
71573;BME280;59408;51.032;9.410;2023-03-14T03:13:51;96751.50;;;8.29;96.17
71573;BME280;59408;51.032;9.410;2023-03-14T03:16:17;96743.38;;;8.29;96.24
71573;BME280;59408;51.032;9.410;2023-03-14T03:18:45;96740.25;;;8.24;96.89
71573;BME280;59408;51.032;9.410;2023-03-14T03:21:12;96746.00;;;8.15;97.39
71573;BME280;59408;51.032;9.410;2023-03-14T03:23:38;96728.13;;;8.11;97.82
71573;BME280;59408;51.032;9.410;2023-03-14T03:26:05;96747.56;;;8.16;97.05
71573;BME280;59408;51.032;9.410;2023-03-14T03:28:32;96739.06;;;8.18;96.83
71573;BME280;59408;51.032;9.410;2023-03-14T03:30:58;96735.94;;;8.16;97.25
71573;BME280;59408;51.032;9.410;2023-03-14T03:33:25;96727.38;;;8.14;96.59
71573;BME280;59408;51.032;9.410;2023-03-14T03:35:53;96718.50;;;8.20;95.65
71573;BME280;59408;51.032;9.410;2023-03-14T03:38:20;96715.00;;;8.20;95.52
71573;BME280;59408;51.032;9.410;2023-03-14T03:40:46;96710.38;;;8.24;94.41
71573;BME280;59408;51.032;9.410;2023-03-14T03:43:13;96699.88;;;8.22;94.08
71573;BME280;59408;51.032;9.410;2023-03-14T03:45:40;96705.72;;;8.24;93.34
71573;BME280;59408;51.032;9.410;2023-03-14T03:48:06;96703.00;;;8.24;93.03
71573;BME280;59408;51.032;9.410;2023-03-14T03:50:33;96716.19;;;8.19;93.16
71573;BME280;59408;51.032;9.410;2023-03-14T03:53:01;96705.34;;;8.26;92.26
71573;BME280;59408;51.032;9.410;2023-03-14T03:55:27;96712.31;;;8.23;92.19
71573;BME280;59408;51.032;9.410;2023-03-14T03:57:54;96722.41;;;8.30;91.78
71573;BME280;59408;51.032;9.410;2023-03-14T04:00:21;96710.00;;;8.29;91.52
71573;BME280;59408;51.032;9.410;2023-03-14T04:02:48;96705.75;;;8.31;91.15
71573;BME280;59408;51.032;9.410;2023-03-14T04:05:14;96700.69;;;8.30;91.49
71573;BME280;59408;51.032;9.410;2023-03-14T04:07:41;96703.75;;;8.21;92.28
71573;BME280;59408;51.032;9.410;2023-03-14T04:10:10;96705.31;;;8.22;92.15
71573;BME280;59408;51.032;9.410;2023-03-14T04:12:36;96705.69;;;8.21;92.24
71573;BME280;59408;51.032;9.410;2023-03-14T04:15:04;96704.88;;;8.13;92.27
71573;BME280;59408;51.032;9.410;2023-03-14T04:17:31;96719.59;;;8.12;92.41
71573;BME280;59408;51.032;9.410;2023-03-14T04:19:57;96709.97;;;8.18;91.90
71573;BME280;59408;51.032;9.410;2023-03-14T04:22:24;96705.25;;;8.12;92.25
71573;BME280;59408;51.032;9.410;2023-03-14T04:24:50;96725.81;;;8.13;91.78
71573;BME280;59408;51.032;9.410;2023-03-14T04:27:19;96709.91;;;8.08;92.17
71573;BME280;59408;51.032;9.410;2023-03-14T04:29:45;96685.88;;;8.10;92.13
71573;BME280;59408;51.032;9.410;2023-03-14T04:32:12;96681.16;;;8.03;92.77
71573;BME280;59408;51.032;9.410;2023-03-14T04:34:38;96676.47;;;7.96;93.27
71573;BME280;59408;51.032;9.410;2023-03-14T04:37:05;96682.31;;;7.98;93.22
71573;BME280;59408;51.032;9.410;2023-03-14T04:39:32;96677.25;;;7.97;92.67
71573;BME280;59408;51.032;9.410;2023-03-14T04:41:58;96683.06;;;7.95;92.65
71573;BME280;59408;51.032;9.410;2023-03-14T04:44:27;96681.53;;;7.98;92.71
71573;BME280;59408;51.032;9.410;2023-03-14T04:46:53;96675.25;;;7.87;93.56
71573;BME280;59408;51.032;9.410;2023-03-14T04:49:20;96688.84;;;7.90;92.85
71573;BME280;59408;51.032;9.410;2023-03-14T04:51:47;96669.00;;;7.79;93.48
71573;BME280;59408;51.032;9.410;2023-03-14T04:54:13;96665.88;;;7.74;93.86
71573;BME280;59408;51.032;9.410;2023-03-14T04:56:40;96679.88;;;7.79;93.21
71573;BME280;59408;51.032;9.410;2023-03-14T04:59:07;96669.78;;;7.80;92.94
71573;BME280;59408;51.032;9.410;2023-03-14T05:01:35;96680.22;;;7.78;93.08
71573;BME280;59408;51.032;9.410;2023-03-14T05:04:02;96677.47;;;7.71;93.38
71573;BME280;59408;51.032;9.410;2023-03-14T05:06:28;96682.88;;;7.63;93.65
71573;BME280;59408;51.032;9.410;2023-03-14T05:08:55;96674.81;;;7.78;92.25
71573;BME280;59408;51.032;9.410;2023-03-14T05:11:21;96688.75;;;7.73;91.96
71573;BME280;59408;51.032;9.410;2023-03-14T05:13:48;96682.16;;;7.77;91.10
71573;BME280;59408;51.032;9.410;2023-03-14T05:16:15;96682.63;;;7.83;90.97
71573;BME280;59408;51.032;9.410;2023-03-14T05:18:43;96684.91;;;7.84;91.24
71573;BME280;59408;51.032;9.410;2023-03-14T05:21:09;96670.91;;;7.75;92.12
71573;BME280;59408;51.032;9.410;2023-03-14T05:23:36;96667.38;;;7.68;93.04
71573;BME280;59408;51.032;9.410;2023-03-14T05:26:02;96658.88;;;7.69;93.34
71573;BME280;59408;51.032;9.410;2023-03-14T05:28:29;96664.22;;;7.58;94.01
71573;BME280;59408;51.032;9.410;2023-03-14T05:30:56;96657.31;;;7.68;93.85
71573;BME280;59408;51.032;9.410;2023-03-14T05:33:22;96656.84;;;7.59;94.49
71573;BME280;59408;51.032;9.410;2023-03-14T05:35:50;96647.19;;;7.61;94.43
71573;BME280;59408;51.032;9.410;2023-03-14T05:38:17;96657.28;;;7.65;94.54
71573;BME280;59408;51.032;9.410;2023-03-14T05:40:44;96651.91;;;7.72;94.10
71573;BME280;59408;51.032;9.410;2023-03-14T05:43:11;96653.47;;;7.76;93.97
71573;BME280;59408;51.032;9.410;2023-03-14T05:45:38;96653.91;;;7.82;93.22
71573;BME280;59408;51.032;9.410;2023-03-14T05:48:05;96660.50;;;7.84;93.17
71573;BME280;59408;51.032;9.410;2023-03-14T05:50:31;96669.81;;;7.87;93.57
71573;BME280;59408;51.032;9.410;2023-03-14T05:52:59;96664.81;;;7.92;92.78
71573;BME280;59408;51.032;9.410;2023-03-14T05:55:26;96660.16;;;7.93;93.10
71573;BME280;59408;51.032;9.410;2023-03-14T05:57:54;96659.41;;;7.96;92.64
71573;BME280;59408;51.032;9.410;2023-03-14T06:00:21;96660.94;;;7.93;92.92
71573;BME280;59408;51.032;9.410;2023-03-14T06:02:48;96656.69;;;7.96;93.11
71573;BME280;59408;51.032;9.410;2023-03-14T06:05:15;96657.09;;;7.98;93.39
71573;BME280;59408;51.032;9.410;2023-03-14T06:07:42;96662.50;;;7.91;94.21
71573;BME280;59408;51.032;9.410;2023-03-14T06:10:10;96650.03;;;7.86;94.64
71573;BME280;59408;51.032;9.410;2023-03-14T06:12:37;96657.06;;;7.91;94.29
71573;BME280;59408;51.032;9.410;2023-03-14T06:15:05;96642.75;;;7.97;93.21
71573;BME280;59408;51.032;9.410;2023-03-14T06:17:32;96635.75;;;7.96;93.46
71573;BME280;59408;51.032;9.410;2023-03-14T06:19:58;96620.63;;;7.95;93.26
71573;BME280;59408;51.032;9.410;2023-03-14T06:22:25;96633.81;;;7.97;92.80
71573;BME280;59408;51.032;9.410;2023-03-14T06:24:52;96624.16;;;7.99;92.50
71573;BME280;59408;51.032;9.410;2023-03-14T06:27:20;96619.88;;;7.98;91.80
71573;BME280;59408;51.032;9.410;2023-03-14T06:29:46;96612.50;;;8.02;91.75
71573;BME280;59408;51.032;9.410;2023-03-14T06:32:13;96597.00;;;7.99;92.18
71573;BME280;59408;51.032;9.410;2023-03-14T06:34:39;96600.16;;;8.09;92.03
71573;BME280;59408;51.032;9.410;2023-03-14T06:37:06;96611.00;;;8.09;92.14
71573;BME280;59408;51.032;9.410;2023-03-14T06:39:33;96619.53;;;8.11;92.09
71573;BME280;59408;51.032;9.410;2023-03-14T06:42:00;96611.06;;;8.19;91.30
71573;BME280;59408;51.032;9.410;2023-03-14T06:44:28;96616.91;;;8.28;90.99
71573;BME280;59408;51.032;9.410;2023-03-14T06:46:54;96621.94;;;8.30;90.86
71573;BME280;59408;51.032;9.410;2023-03-14T06:49:21;96624.28;;;8.28;91.48
71573;BME280;59408;51.032;9.410;2023-03-14T06:51:48;96632.78;;;8.26;92.01
71573;BME280;59408;51.032;9.410;2023-03-14T06:54:14;96619.22;;;8.30;91.23
71573;BME280;59408;51.032;9.410;2023-03-14T06:56:41;96626.97;;;8.31;91.47
71573;BME280;59408;51.032;9.410;2023-03-14T06:59:08;96623.88;;;8.29;91.78
71573;BME280;59408;51.032;9.410;2023-03-14T07:01:36;96634.72;;;8.29;92.15
71573;BME280;59408;51.032;9.410;2023-03-14T07:04:03;96645.22;;;8.31;91.66
71573;BME280;59408;51.032;9.410;2023-03-14T07:06:30;96647.53;;;8.29;92.30
71573;BME280;59408;51.032;9.410;2023-03-14T07:08:56;96650.66;;;8.31;90.91
71573;BME280;59408;51.032;9.410;2023-03-14T07:11:23;96654.16;;;8.31;91.34
71573;BME280;59408;51.032;9.410;2023-03-14T07:13:50;96651.81;;;8.30;91.76
71573;BME280;59408;51.032;9.410;2023-03-14T07:16:16;96662.66;;;8.30;92.20
71573;BME280;59408;51.032;9.410;2023-03-14T07:18:45;96663.03;;;8.25;92.38
71573;BME280;59408;51.032;9.410;2023-03-14T07:21:11;96661.09;;;8.22;93.04
71573;BME280;59408;51.032;9.410;2023-03-14T07:23:38;96684.38;;;8.19;93.22
71573;BME280;59408;51.032;9.410;2023-03-14T07:26:05;96673.81;;;8.11;94.50
71573;BME280;59408;51.032;9.410;2023-03-14T07:28:32;96668.38;;;8.04;94.98
71573;BME280;59408;51.032;9.410;2023-03-14T07:30:58;96672.63;;;8.05;95.53
71573;BME280;59408;51.032;9.410;2023-03-14T07:33:25;96677.66;;;8.02;95.63
71573;BME280;59408;51.032;9.410;2023-03-14T07:35:53;96666.03;;;7.98;96.71
71573;BME280;59408;51.032;9.410;2023-03-14T07:38:20;96662.94;;;8.00;95.72
71573;BME280;59408;51.032;9.410;2023-03-14T07:40:48;96662.94;;;8.04;95.64
71573;BME280;59408;51.032;9.410;2023-03-14T07:43:15;96672.25;;;8.06;95.11
71573;BME280;59408;51.032;9.410;2023-03-14T07:45:45;96668.41;;;8.07;94.66
71573;BME280;59408;51.032;9.410;2023-03-14T07:48:16;96666.06;;;8.06;94.91
71573;BME280;59408;51.032;9.410;2023-03-14T07:50:43;96662.19;;;8.07;94.10
71573;BME280;59408;51.032;9.410;2023-03-14T07:53:11;96654.06;;;8.10;93.16
71573;BME280;59408;51.032;9.410;2023-03-14T07:55:39;96674.59;;;8.11;92.98
71573;BME280;59408;51.032;9.410;2023-03-14T07:58:06;96660.28;;;8.14;93.01
71573;BME280;59408;51.032;9.410;2023-03-14T08:00:32;96663.81;;;8.18;93.04
71573;BME280;59408;51.032;9.410;2023-03-14T08:02:59;96651.78;;;8.19;93.11
71573;BME280;59408;51.032;9.410;2023-03-14T08:05:26;96656.81;;;8.21;93.29
71573;BME280;59408;51.032;9.410;2023-03-14T08:07:52;96656.06;;;8.24;94.46
71573;BME280;59408;51.032;9.410;2023-03-14T08:10:20;96662.28;;;8.24;94.48
71573;BME280;59408;51.032;9.410;2023-03-14T08:12:47;96661.91;;;8.33;94.29
71573;BME280;59408;51.032;9.410;2023-03-14T08:15:14;96648.34;;;8.33;93.71
71573;BME280;59408;51.032;9.410;2023-03-14T08:17:40;96661.94;;;8.40;93.59
71573;BME280;59408;51.032;9.410;2023-03-14T08:20:08;96655.41;;;8.55;93.46
71573;BME280;59408;51.032;9.410;2023-03-14T08:22:35;96650.75;;;8.66;92.15
71573;BME280;59408;51.032;9.410;2023-03-14T08:25:02;96653.88;;;8.61;92.05
71573;BME280;59408;51.032;9.410;2023-03-14T08:27:29;96660.47;;;8.64;91.78
71573;BME280;59408;51.032;9.410;2023-03-14T08:29:56;96649.63;;;8.74;92.91
71573;BME280;59408;51.032;9.410;2023-03-14T08:32:23;96653.91;;;8.79;93.07
71573;BME280;59408;51.032;9.410;2023-03-14T08:34:50;96655.03;;;8.60;96.11
71573;BME280;59408;51.032;9.410;2023-03-14T08:37:16;96661.94;;;8.40;95.79
71573;BME280;59408;51.032;9.410;2023-03-14T08:39:52;96656.88;;;8.38;98.01
71573;BME280;59408;51.032;9.410;2023-03-14T08:42:19;96665.06;;;8.42;98.47
71573;BME280;59408;51.032;9.410;2023-03-14T08:44:47;96666.97;;;8.34;99.46
71573;BME280;59408;51.032;9.410;2023-03-14T08:47:14;96667.00;;;8.42;100.00
71573;BME280;59408;51.032;9.410;2023-03-14T08:49:41;96666.59;;;8.39;100.00
71573;BME280;59408;51.032;9.410;2023-03-14T08:52:07;96674.75;;;8.39;100.00
71573;BME280;59408;51.032;9.410;2023-03-14T08:54:34;96670.06;;;8.33;100.00
71573;BME280;59408;51.032;9.410;2023-03-14T08:57:01;96667.72;;;8.28;100.00
71573;BME280;59408;51.032;9.410;2023-03-14T08:59:27;96678.22;;;8.40;100.00
71573;BME280;59408;51.032;9.410;2023-03-14T09:01:55;96681.25;;;8.21;100.00
71573;BME280;59408;51.032;9.410;2023-03-14T09:04:22;96674.66;;;8.18;100.00
71573;BME280;59408;51.032;9.410;2023-03-14T09:06:49;96665.44;;;8.41;100.00
71573;BME280;59408;51.032;9.410;2023-03-14T09:09:15;96677.81;;;8.31;100.00
71573;BME280;59408;51.032;9.410;2023-03-14T09:11:42;96680.53;;;8.38;100.00
71573;BME280;59408;51.032;9.410;2023-03-14T09:14:08;96673.59;;;8.44;100.00
71573;BME280;59408;51.032;9.410;2023-03-14T09:16:35;96684.94;;;8.74;100.00
71573;BME280;59408;51.032;9.410;2023-03-14T09:19:03;96678.44;;;9.00;100.00
71573;BME280;59408;51.032;9.410;2023-03-14T09:21:30;96676.94;;;9.28;99.19
71573;BME280;59408;51.032;9.410;2023-03-14T09:23:56;96689.75;;;9.27;96.93
71573;BME280;59408;51.032;9.410;2023-03-14T09:26:23;96676.94;;;9.35;97.09
71573;BME280;59408;51.032;9.410;2023-03-14T09:28:51;96672.25;;;9.60;94.40
71573;BME280;59408;51.032;9.410;2023-03-14T09:31:17;96681.19;;;9.57;93.29
71573;BME280;59408;51.032;9.410;2023-03-14T09:33:44;96681.22;;;9.61;93.53
71573;BME280;59408;51.032;9.410;2023-03-14T09:36:12;96680.03;;;9.33;94.23
71573;BME280;59408;51.032;9.410;2023-03-14T09:38:38;96686.66;;;9.25;94.63
71573;BME280;59408;51.032;9.410;2023-03-14T09:41:15;96680.38;;;9.10;96.16
71573;BME280;59408;51.032;9.410;2023-03-14T09:43:43;96686.25;;;9.20;96.56
71573;BME280;59408;51.032;9.410;2023-03-14T09:46:11;96685.47;;;9.30;97.33
71573;BME280;59408;51.032;9.410;2023-03-14T09:48:38;96676.53;;;9.50;95.48
71573;BME280;59408;51.032;9.410;2023-03-14T09:51:13;96686.63;;;9.78;93.34
71573;BME280;59408;51.032;9.410;2023-03-14T09:53:42;96698.28;;;9.90;91.50
71573;BME280;59408;51.032;9.410;2023-03-14T09:56:12;96682.31;;;9.95;92.37
71573;BME280;59408;51.032;9.410;2023-03-14T09:58:41;96678.84;;;9.84;91.83
71573;BME280;59408;51.032;9.410;2023-03-14T10:01:13;96695.16;;;9.84;91.33
71573;BME280;59408;51.032;9.410;2023-03-14T10:03:42;96696.75;;;9.49;92.74
71573;BME280;59408;51.032;9.410;2023-03-14T10:06:12;96687.41;;;9.26;95.93
71573;BME280;59408;51.032;9.410;2023-03-14T10:08:40;96695.59;;;9.26;96.37
71573;BME280;59408;51.032;9.410;2023-03-14T10:11:12;96689.75;;;9.52;96.59
71573;BME280;59408;51.032;9.410;2023-03-14T10:13:48;96683.94;;;9.71;94.12
71573;BME280;59408;51.032;9.410;2023-03-14T10:16:15;96675.72;;;10.00;93.27
71573;BME280;59408;51.032;9.410;2023-03-14T10:18:44;96684.59;;;10.25;91.18
71573;BME280;59408;51.032;9.410;2023-03-14T10:21:29;96692.00;;;10.14;90.29
71573;BME280;59408;51.032;9.410;2023-03-14T10:24:07;96683.38;;;10.44;88.47
71573;BME280;59408;51.032;9.410;2023-03-14T10:26:34;96680.38;;;10.10;88.69
71573;BME280;59408;51.032;9.410;2023-03-14T10:29:03;96677.56;;;10.35;88.72
71573;BME280;59408;51.032;9.410;2023-03-14T10:31:46;96672.75;;;10.67;87.57
71573;BME280;59408;51.032;9.410;2023-03-14T10:34:16;96682.94;;;10.56;87.29
71573;BME280;59408;51.032;9.410;2023-03-14T10:36:45;96671.56;;;10.68;87.21
71573;BME280;59408;51.032;9.410;2023-03-14T10:39:27;96681.34;;;10.62;86.77
71573;BME280;59408;51.032;9.410;2023-03-14T10:42:02;96675.06;;;10.72;84.63
71573;BME280;59408;51.032;9.410;2023-03-14T10:44:31;96669.44;;;11.04;84.56
71573;BME280;59408;51.032;9.410;2023-03-14T10:47:00;96676.66;;;11.32;84.48
71573;BME280;59408;51.032;9.410;2023-03-14T10:49:29;96664.88;;;11.46;82.45
71573;BME280;59408;51.032;9.410;2023-03-14T10:52:01;96675.75;;;11.49;81.44
71573;BME280;59408;51.032;9.410;2023-03-14T10:54:29;96668.19;;;11.19;82.39
71573;BME280;59408;51.032;9.410;2023-03-14T10:56:57;96661.31;;;11.01;83.72
71573;BME280;59408;51.032;9.410;2023-03-14T10:59:24;96665.47;;;11.16;84.08
71573;BME280;59408;51.032;9.410;2023-03-14T11:01:55;96677.84;;;11.31;83.27
71573;BME280;59408;51.032;9.410;2023-03-14T11:04:41;96665.88;;;11.18;82.26
71573;BME280;59408;51.032;9.410;2023-03-14T11:07:16;96670.03;;;11.29;82.32
71573;BME280;59408;51.032;9.410;2023-03-14T11:09:51;96664.88;;;11.46;82.32
71573;BME280;59408;51.032;9.410;2023-03-14T11:12:34;96663.09;;;11.73;81.02
71573;BME280;59408;51.032;9.410;2023-03-14T11:15:06;96664.59;;;11.78;79.40
71573;BME280;59408;51.032;9.410;2023-03-14T11:17:41;96671.97;;;11.36;80.34
71573;BME280;59408;51.032;9.410;2023-03-14T11:20:22;96671.00;;;11.09;81.49
71573;BME280;59408;51.032;9.410;2023-03-14T11:22:59;96674.22;;;10.86;83.54
71573;BME280;59408;51.032;9.410;2023-03-14T11:25:32;96678.22;;;10.63;86.59
71573;BME280;59408;51.032;9.410;2023-03-14T11:28:09;96674.81;;;10.45;89.38
71573;BME280;59408;51.032;9.410;2023-03-14T11:30:45;96674.06;;;10.34;90.40
71573;BME280;59408;51.032;9.410;2023-03-14T11:33:17;96674.13;;;10.06;92.90
71573;BME280;59408;51.032;9.410;2023-03-14T11:35:47;96672.22;;;9.92;95.88
71573;BME280;59408;51.032;9.410;2023-03-14T11:38:30;96670.31;;;9.71;96.87
71573;BME280;59408;51.032;9.410;2023-03-14T11:40:59;96669.91;;;9.66;98.85
71573;BME280;59408;51.032;9.410;2023-03-14T11:43:28;96666.03;;;9.60;100.00
71573;BME280;59408;51.032;9.410;2023-03-14T11:46:03;96678.47;;;9.57;99.95
71573;BME280;59408;51.032;9.410;2023-03-14T11:48:38;96668.00;;;9.38;100.00
71573;BME280;59408;51.032;9.410;2023-03-14T11:51:12;96678.09;;;9.23;100.00
71573;BME280;59408;51.032;9.410;2023-03-14T11:53:49;96681.16;;;9.07;100.00
71573;BME280;59408;51.032;9.410;2023-03-14T11:56:25;96681.91;;;8.97;100.00
71573;BME280;59408;51.032;9.410;2023-03-14T11:58:58;96675.34;;;9.09;100.00
71573;BME280;59408;51.032;9.410;2023-03-14T12:01:34;96689.31;;;9.11;100.00
71573;BME280;59408;51.032;9.410;2023-03-14T12:04:11;96683.47;;;9.05;100.00
71573;BME280;59408;51.032;9.410;2023-03-14T12:06:45;96686.56;;;9.11;100.00
71573;BME280;59408;51.032;9.410;2023-03-14T12:09:15;96687.72;;;8.96;100.00
71573;BME280;59408;51.032;9.410;2023-03-14T12:11:46;96692.00;;;9.04;100.00
71573;BME280;59408;51.032;9.410;2023-03-14T12:14:19;96703.28;;;8.99;100.00
71573;BME280;59408;51.032;9.410;2023-03-14T12:16:47;96704.44;;;8.98;100.00
71573;BME280;59408;51.032;9.410;2023-03-14T12:19:36;96699.78;;;8.91;100.00
71573;BME280;59408;51.032;9.410;2023-03-14T12:22:13;96708.28;;;8.86;100.00
71573;BME280;59408;51.032;9.410;2023-03-14T12:24:48;96705.53;;;8.75;100.00
71573;BME280;59408;51.032;9.410;2023-03-14T12:27:41;96720.66;;;8.62;100.00
71573;BME280;59408;51.032;9.410;2023-03-14T12:30:17;96722.13;;;8.49;100.00
71573;BME280;59408;51.032;9.410;2023-03-14T12:35:58;96742.28;;;8.41;100.00
71573;BME280;59408;51.032;9.410;2023-03-14T12:38:31;96748.81;;;8.33;100.00
71573;BME280;59408;51.032;9.410;2023-03-14T12:41:10;96749.56;;;8.30;100.00
71573;BME280;59408;51.032;9.410;2023-03-14T12:43:40;96777.47;;;8.23;100.00
71573;BME280;59408;51.032;9.410;2023-03-14T12:46:09;96791.31;;;8.04;94.74
71573;BME280;59408;51.032;9.410;2023-03-14T12:48:40;96809.84;;;7.91;95.84
71573;BME280;59408;51.032;9.410;2023-03-14T12:51:13;96809.41;;;7.86;94.92
71573;BME280;59408;51.032;9.410;2023-03-14T12:53:50;96823.75;;;7.86;96.69
71573;BME280;59408;51.032;9.410;2023-03-14T12:56:25;96833.75;;;7.79;98.57
71573;BME280;59408;51.032;9.410;2023-03-14T12:59:13;96874.28;;;7.61;96.91
71573;BME280;59408;51.032;9.410;2023-03-14T13:01:48;96865.50;;;7.38;96.28
71573;BME280;59408;51.032;9.410;2023-03-14T13:04:27;96890.88;;;7.22;95.92
71573;BME280;59408;51.032;9.410;2023-03-14T13:07:04;96902.41;;;7.16;96.43
71573;BME280;59408;51.032;9.410;2023-03-14T13:12:23;96932.31;;;6.93;93.32
71573;BME280;59408;51.032;9.410;2023-03-14T13:14:51;96941.84;;;6.83;91.79
71573;BME280;59408;51.032;9.410;2023-03-14T13:17:23;96950.56;;;6.70;92.93
71573;BME280;59408;51.032;9.410;2023-03-14T13:20:05;96989.00;;;6.53;91.40
71573;BME280;59408;51.032;9.410;2023-03-14T13:22:36;96988.81;;;6.42;91.85